Latest Weather Observations for Batchelor

IDD60901

Issued at 7:21 pm CST Tuesday 28 February 2017 (issued every 10 minutes, with the page automatically refreshed every 10 minutes)

About weather observations | Map of Darwin area stations | Latest observations for Darwin area | Other Formats
Station Details ID: 014272 Name: BATCHELOR AIRPORT Lat: -13.05 Lon: 131.03 Height: 104.0 m
Data from the previous 72 hours. | See also: Recent months at Batchelor
Date/Time
CST
Temp
°C
App
Temp
°C
Dew
Point
°C
Rel
Hum
%
Delta-T
°C
Wind Press
QNH
hPa
Press
MSL
hPa
Rain since
9am
mm
Dir  Spd
km/h
Gust
km/h
Spd
kts
Gust
kts
28/07:00pm 31.6 34.5 19.9 50 7.7 NE 4 6 2 3 1007.2 1006.5 0.0
28/06:30pm 32.8 34.3 19.7 46 8.7 E 11 17 6 9 1006.7 1006.0 0.0
28/06:00pm 33.3 34.7 18.6 41 9.6 ESE 9 20 5 11 1006.3 1005.5 0.0
28/05:30pm 33.6 35.8 19.7 44 9.3 ESE 7 13 4 7 1006.2 1005.4 0.0
28/05:00pm 33.9 35.7 19.6 43 9.5 ESE 9 19 5 10 1006.1 1005.3 0.0
28/04:30pm 33.5 34.0 18.4 40 9.9 ENE 13 19 7 10 1006.5 1005.8 0.0
28/04:00pm 34.0 35.6 20.0 43 9.3 E 11 19 6 10 1006.5 1005.8 0.0
28/03:30pm 33.7 34.9 19.0 42 9.7 ESE 11 19 6 10 1006.5 1005.8 0.0
28/03:00pm 33.7 35.2 19.7 43 9.3 ESE 11 20 6 11 1006.6 1005.9 0.0
28/02:30pm 33.6 35.1 19.7 44 9.2 ENE 11 24 6 13 1007.0 1006.3 0.0
28/02:00pm 33.4 35.1 20.2 46 8.8 E 11 19 6 10 1007.1 1006.4 0.0
28/01:30pm 33.3 35.3 20.8 48 8.4 E 11 22 6 12 1007.4 1006.7 0.0
28/01:00pm 32.8 34.7 21.3 50 7.8 SE 13 22 7 12 1007.5 1006.8 0.0
28/12:30pm 32.6 33.9 20.2 48 8.3 E 13 22 7 12 1008.2 1007.5 0.0
28/12:00pm 32.4 35.0 21.9 54 7.2 E 11 19 6 10 1008.5 1007.8 0.0
28/11:30am 31.4 34.1 22.1 57 6.3 E 11 19 6 10 1008.8 1008.1 0.0
28/11:00am 30.9 33.5 21.9 58 6.1 ENE 11 20 6 11 1009.0 1008.3 0.0
28/10:30am 30.5 33.2 22.9 64 5.2 ESE 13 19 7 10 1009.3 1008.6 0.0
28/10:00am 29.7 32.1 22.2 64 5.1 E 13 19 7 10 1009.5 1008.8 0.0
28/09:30am 29.2 31.7 22.4 66 4.6 E 13 19 7 10 1009.7 1009.0 0.0
28/09:00am 28.6 32.2 23.1 72 3.8 ESE 9 13 5 7 1010.0 1009.3 0.2
28/08:30am 27.7 31.8 23.3 77 3.0 E 7 11 4 6 1009.5 1008.8 0.2
28/08:00am 26.4 30.2 22.7 80 2.5 ESE 7 9 4 5 1009.3 1008.6 0.2
28/07:30am 25.0 29.7 22.7 87 1.6 ESE 2 4 1 2 1009.1 1008.4 0.2
28/07:00am 23.8 28.0 22.4 92 0.9 ESE 4 4 2 2 1009.0 1008.3 0.2
28/06:30am 23.9 28.0 22.3 91 1.1 ESE 4 6 2 3 1009.0 1008.3 0.2
28/06:00am 24.2 28.1 22.6 91 1.1 E 6 6 3 3 1009.0 1008.3 0.2
28/05:30am 24.3 29.0 22.6 90 1.1 NNE 2 4 1 2 1008.8 1008.1 0.2
28/05:00am 24.4 29.5 22.7 90 1.1 CALM 0 0 0 0 1008.3 1007.6 0.2
28/04:30am 24.7 29.9 22.9 90 1.2 CALM 0 0 0 0 1008.1 1007.4 0.2
28/04:00am 24.8 29.9 22.7 88 1.4 CALM 0 0 0 0 1008.2 1007.5 0.2
28/03:30am 25.1 30.0 22.4 85 1.8 CALM 0 0 0 0 1008.2 1007.5 0.2
28/03:00am 25.3 29.8 22.2 83 2.1 NNE 2 4 1 2 1008.4 1007.7 0.2
28/02:30am 25.5 29.6 22.2 82 2.2 NNE 4 6 2 3 1008.5 1007.8 0.2
28/02:00am 25.8 29.7 22.5 82 2.2 N 6 9 3 5 1008.9 1008.2 0.2
28/01:30am 26.2 30.1 22.9 82 2.2 N 7 11 4 6 1009.1 1008.4 0.2
28/01:00am 26.6 30.8 23.5 83 2.1 NNE 7 13 4 7 1009.4 1008.7 0.2
28/12:30am 26.9 31.5 23.8 83 2.1 N 6 9 3 5 1009.7 1009.0 0.2
28/12:00am 26.7 31.2 23.6 83 2.1 NNW 6 7 3 4 1009.7 1009.0 0.2
 
Date/Time
CST
Temp
°C
App
Temp
°C
Dew
Point
°C
Rel
Hum
%
Delta-T
°C
Wind Press
QNH
hPa
Press
MSL
hPa
Rain since
9am
mm
Dir  Spd
km/h
Gust
km/h
Spd
kts
Gust
kts
27/11:30pm 26.8 31.6 23.5 82 2.3 NNW 4 7 2 4 1010.0 1009.3 0.2
27/11:00pm 26.6 31.3 23.9 85 1.9 WNW 6 7 3 4 1009.6 1008.9 0.2
27/10:30pm 26.6 31.1 23.7 84 2.0 WNW 6 7 3 4 1009.4 1008.7 0.2
27/10:00pm 26.6 31.1 23.7 84 2.0 WNW 6 7 3 4 1009.2 1008.5 0.2
27/09:30pm 26.8 31.1 23.3 81 2.4 W 6 7 3 4 1008.7 1008.0 0.2
27/09:00pm 27.0 31.7 23.3 80 2.5 WNW 4 6 2 3 1008.4 1007.7 0.2
27/08:30pm 27.6 31.7 23.0 76 3.1 WNW 6 9 3 5 1008.1 1007.4 0.2
27/08:00pm 28.1 32.0 23.0 74 3.5 WNW 7 13 4 7 1007.5 1006.8 0.2
27/07:30pm 29.5 35.0 23.4 69 4.2 CALM 0 0 0 0 1007.1 1006.4 0.2
27/07:00pm 31.1 36.0 23.0 62 5.6 ENE 2 4 1 2 1006.9 1006.2 0.2
27/06:30pm 32.3 35.7 20.9 51 7.7 E 4 6 2 3 1006.5 1005.8 0.2
27/06:00pm 33.2 35.1 19.7 45 9.0 E 9 11 5 6 1006.2 1005.4 0.2
27/05:30pm 33.9 37.0 21.0 47 8.7 ESE 6 7 3 4 1006.3 1005.5 0.2
27/05:00pm 34.1 35.8 19.4 42 9.7 ESE 9 17 5 9 1006.0 1005.2 0.2
27/04:30pm 33.6 35.6 20.7 46 8.7 SE 11 17 6 9 1005.8 1005.0 0.2
27/04:00pm 34.3 36.8 21.0 45 9.0 ESE 9 17 5 9 1006.2 1005.4 0.2
27/03:30pm 33.3 35.0 20.1 45 8.8 E 11 19 6 10 1006.5 1005.8 0.2
27/03:00pm 33.6 35.8 21.1 48 8.5 ESE 11 19 6 10 1006.9 1006.2 0.2
27/02:30pm 32.9 34.2 20.1 47 8.5 E 13 22 7 12 1007.3 1006.6 0.2
27/02:00pm 33.1 35.2 20.9 48 8.2 ESE 11 19 6 10 1007.5 1006.8 0.2
27/01:30pm 32.8 35.5 21.3 50 7.8 ENE 9 19 5 10 1007.9 1007.2 0.2
27/01:00pm 32.3 34.9 21.2 52 7.5 ESE 9 15 5 8 1008.4 1007.7 0.2
27/12:30pm 32.7 35.7 21.9 53 7.4 E 9 17 5 9 1008.8 1008.1 0.2
27/12:00pm 32.3 35.2 21.8 54 7.2 E 9 17 5 9 1009.2 1008.5 0.2
27/11:30am 31.7 35.9 23.2 60 5.9 E 6 11 3 6 1009.3 1008.6 0.2
27/11:00am 30.9 35.7 23.5 64 5.1 WSW 4 6 2 3 1009.6 1008.9 0.2
27/10:30am 29.6 34.5 23.1 68 4.5 WNW 2 6 1 3 1009.9 1009.2 0.2
27/10:00am 29.5 34.0 23.0 68 4.5 SSE 4 7 2 4 1010.3 1009.6 0.2
27/09:30am 28.7 33.7 23.8 75 3.4 S 4 6 2 3 1010.2 1009.5 0.0
27/09:00am 27.6 32.0 23.4 78 2.9 S 6 7 3 4 1010.1 1009.4 3.6
27/08:30am 26.6 31.5 23.7 84 2.0 SW 4 7 2 4 1010.1 1009.4 3.6
27/08:00am 25.1 29.4 23.3 90 1.2 S 6 7 3 4 1009.7 1009.0 3.6
27/07:30am 24.3 29.0 23.4 95 0.6 SSW 4 7 2 4 1009.4 1008.7 3.6
27/07:00am 23.4 28.5 22.6 95 0.5 CALM 0 0 0 0 1009.0 1008.3 3.6
27/06:30am 23.4 28.1 22.6 95 0.5 S 2 2 1 1 1008.7 1008.0 3.6
27/06:00am 23.4 27.4 22.7 96 0.5 S 6 7 3 4 1008.3 1007.6 3.6
27/05:30am 23.5 27.8 22.7 95 0.5 S 4 6 2 3 1008.2 1007.5 3.6
27/05:00am 23.6 28.4 22.8 95 0.5 S 2 2 1 1 1008.1 1007.4 3.6
27/04:30am 23.7 28.5 22.9 95 0.5 NW 2 2 1 1 1008.1 1007.4 3.6
27/04:00am 23.9 29.0 22.7 93 0.8 CALM 0 0 0 0 1008.0 1007.3 3.6
27/03:30am 23.9 29.1 22.9 94 0.7 CALM 0 0 0 0 1008.5 1007.8 3.6
27/03:00am 23.9 28.8 23.0 95 0.6 NW 2 4 1 2 1008.8 1008.1 3.6
27/02:30am 23.9 29.0 22.7 93 0.8 CALM 0 0 0 0 1009.2 1008.5 3.6
27/02:00am 23.9 28.2 22.7 93 0.8 NW 4 6 2 3 1009.6 1008.9 3.6
27/01:30am 24.2 28.8 23.2 94 0.7 NW 4 6 2 3 1010.1 1009.4 3.6
27/01:00am 24.5 28.3 22.8 90 1.1 WNW 7 11 4 6 1010.5 1009.8 2.6
27/12:30am 25.0 28.9 22.9 88 1.4 WNW 7 9 4 5 1010.6 1009.9 0.2
27/12:00am 25.2 29.7 22.9 87 1.6 N 4 7 2 4 1010.7 1010.0 0.2
 
Date/Time
CST
Temp
°C
App
Temp
°C
Dew
Point
°C
Rel
Hum
%
Delta-T
°C
Wind Press
QNH
hPa
Press
MSL
hPa
Rain since
9am
mm
Dir  Spd
km/h
Gust
km/h
Spd
kts
Gust
kts
26/11:30pm 25.1 29.6 23.0 88 1.4 WNW 4 6 2 3 1010.7 1010.0 0.2
26/11:00pm 25.0 29.0 22.7 87 1.6 NW 6 7 3 4 1010.2 1009.5 0.2
26/10:30pm 25.3 29.5 22.4 84 2.0 NNW 4 7 2 4 1010.0 1009.3 0.2
26/10:00pm 25.4 29.0 22.1 82 2.2 NW 6 9 3 5 1009.4 1008.7 0.2
26/09:30pm 25.8 29.0 22.3 81 2.4 NNW 9 17 5 9 1009.2 1008.5 0.2
26/09:00pm 26.5 30.2 22.3 78 2.8 NW 6 9 3 5 1008.8 1008.1 0.2
26/08:30pm 26.8 29.8 22.0 75 3.2 NNW 9 15 5 8 1008.4 1007.7 0.2
26/08:00pm 26.4 30.4 22.7 80 2.5 NW 6 7 3 4 1007.9 1007.2 0.2
26/07:30pm 26.2 30.3 22.3 79 2.6 S 4 6 2 3 1006.9 1006.2 0.2
26/07:00pm 26.6 29.0 21.6 74 3.3 SSE 11 19 6 10 1006.5 1005.8 0.2
26/06:30pm 27.1 29.3 21.8 73 3.6 E 13 24 7 13 1006.3 1005.5 0.2
26/06:00pm 31.2 35.7 22.2 58 6.2 SSW 2 26 1 14 1005.9 1005.1 0.2
26/05:30pm 32.0 35.6 21.2 52 7.3 SSW 4 9 2 5 1005.3 1004.5 0.2
26/05:00pm 33.7 37.7 22.1 50 7.9 SE 4 7 2 4 1005.4 1004.6 0.2
26/04:30pm 34.8 38.1 21.5 46 9.1 ESE 6 9 3 5 1005.4 1004.6 0.2
26/04:00pm 34.4 37.3 20.7 44 9.2 SE 6 9 3 5 1005.7 1004.9 0.2
26/03:30pm 33.9 37.0 21.0 47 8.7 SE 6 11 3 6 1005.9 1005.1 0.2
26/03:00pm 34.3 37.4 21.0 45 9.0 SE 6 11 3 6 1006.2 1005.4 0.2
26/02:30pm 34.1 37.1 21.2 47 8.8 SSE 7 13 4 7 1006.3 1005.5 0.2
26/02:00pm 34.3 38.3 22.0 48 8.4 NNW 4 13 2 7 1006.5 1005.8 0.2
26/01:30pm 33.8 37.5 22.2 50 8.0 ESE 6 13 3 7 1006.9 1006.2 0.2
26/01:00pm 33.2 36.9 22.6 53 7.3 SW 7 17 4 9 1007.3 1006.6 0.2
26/12:30pm 32.4 36.3 22.5 56 6.8 SW 6 9 3 5 1007.8 1007.1 0.2
26/12:00pm 31.5 34.8 21.4 55 6.8 S 6 11 3 6 1008.3 1007.6 0.2
26/11:30am 31.2 34.1 21.7 57 6.4 SSE 9 15 5 8 1008.6 1007.9 0.2
26/11:00am 30.8 33.9 22.1 59 5.9 SSE 9 15 5 8 1009.0 1008.3 0.2
26/10:30am 30.4 33.7 22.6 63 5.3 SSE 9 15 5 8 1009.3 1008.6 0.2
26/10:00am 29.3 33.1 22.8 68 4.4 SSE 7 15 4 8 1009.7 1009.0 0.2
26/09:30am 28.1 32.5 22.8 73 3.6 SW 4 7 2 4 1009.5 1008.8 0.0
26/09:00am 27.1 31.2 22.3 75 3.2 S 4 9 2 5 1009.5 1008.8 1.0
26/08:30am 25.9 29.9 22.0 79 2.6 S 4 6 2 3 1009.5 1008.8 1.0
26/08:00am 24.7 28.4 21.4 82 2.2 S 4 7 2 4 1009.1 1008.4 1.0
26/07:30am 23.8 27.4 21.3 86 1.7 SSE 4 6 2 3 1009.3 1008.6 1.0
26/07:00am 22.9 27.3 21.4 91 1.0 CALM 0 4 0 2 1009.0 1008.3 1.0
26/06:30am 22.8 26.0 21.3 91 1.0 SSE 6 9 3 5 1008.8 1008.1 1.0
26/06:00am 23.3 26.7 21.7 91 1.1 S 6 9 3 5 1008.7 1008.0 1.0
26/05:30am 24.0 28.3 22.6 92 0.9 S 4 7 2 4 1008.7 1008.0 1.0
26/05:00am 24.9 30.1 24.2 96 0.5 SSE 4 6 2 3 1008.8 1008.1 1.0
26/04:30am 24.8 30.6 23.9 95 0.6 CALM 0 0 0 0 1008.6 1007.9 1.0
26/04:00am 25.2 30.7 24.0 93 0.8 E 2 2 1 1 1008.8 1008.1 1.0
26/03:30am 25.1 30.2 24.1 94 0.7 SSE 4 6 2 3 1009.1 1008.4 1.0
26/03:00am 25.2 30.9 23.8 92 1.0 CALM 0 0 0 0 1009.2 1008.5 1.0
26/02:30am 25.2 30.7 23.4 90 1.2 CALM 0 0 0 0 1009.6 1008.9 1.0
26/02:00am 25.9 29.9 22.8 83 2.1 SSE 6 11 3 6 1010.0 1009.3 0.0
26/01:30am 26.1 29.0 23.2 84 2.0 ESE 13 20 7 11 1009.9 1009.2 0.0
26/01:00am 25.5 30.5 23.2 87 1.6 W 2 4 1 2 1009.5 1008.8 0.0
26/12:30am 25.5 30.0 23.0 86 1.7 SW 4 6 2 3 1009.9 1009.2 0.0
26/12:00am 25.8 30.0 23.1 85 1.8 W 6 9 3 5 1010.1 1009.4 0.0
 
Date/Time
CST
Temp
°C
App
Temp
°C
Dew
Point
°C
Rel
Hum
%
Delta-T
°C
Wind Press
QNH
hPa
Press
MSL
hPa
Rain since
9am
mm
Dir  Spd
km/h
Gust
km/h
Spd
kts
Gust
kts
25/11:30pm 25.8 30.7 23.1 85 1.8 WNW 2 4 1 2 1010.6 1009.9 0.0
25/11:00pm 25.8 30.3 22.9 84 2.0 W 4 6 2 3 1010.5 1009.8 0.0
25/10:30pm 26.0 30.7 22.7 82 2.2 WNW 2 6 1 3 1010.4 1009.7 0.0
25/10:00pm 26.1 30.4 22.6 81 2.4 WNW 4 6 2 3 1010.2 1009.5 0.0
25/09:30pm 26.1 30.6 23.0 83 2.1 WNW 4 7 2 4 1009.9 1009.2 0.0
25/09:00pm 26.2 30.7 22.9 82 2.2 WNW 4 4 2 2 1009.7 1009.0 0.0
25/08:30pm 26.6 30.6 22.7 79 2.7 WNW 6 9 3 5 1009.4 1008.7 0.0
25/08:00pm 26.6 31.3 23.3 82 2.3 WNW 4 6 2 3 1009.3 1008.6 0.0
25/07:30pm 27.0 31.4 22.8 78 2.9 WNW 4 6 2 3 1008.9 1008.2 0.0

Latest Capital City Observations: Canberra | Sydney | Melbourne | Brisbane | Adelaide | Perth | Hobart | Darwin

Other Formats:

Comma delimited format used in spreadsheet applications
http://www.bom.gov.au/fwo/IDD60901/IDD60901.94125.axf

JavaScript Object Notation format (JSON) in row-major order
http://www.bom.gov.au/fwo/IDD60901/IDD60901.94125.json